createdAt,value
2019-01-16T00:03:51.739Z,87.33
2019-01-16T00:09:04.902Z,87.37
2019-01-16T00:14:16.648Z,87.11
2019-01-16T00:19:28.622Z,86.78
2019-01-16T00:24:40.619Z,86.68
2019-01-16T00:29:58.474Z,86.53
2019-01-16T00:35:09.715Z,86.34
2019-01-16T00:40:32.404Z,86.34
2019-01-16T00:45:43.614Z,86.31
2019-01-16T00:50:55.633Z,86.28
2019-01-16T00:56:04.902Z,86.12
2019-01-16T01:01:15.818Z,86.02
2019-01-16T01:06:27.594Z,85.77
2019-01-16T01:11:45.594Z,85.69
2019-01-16T01:16:59.654Z,85.57
2019-01-16T01:22:11.299Z,85.62
2019-01-16T01:27:23.389Z,85.71
2019-01-16T01:32:39.454Z,85.80
2019-01-16T01:38:01.449Z,85.97
2019-01-16T01:43:20.463Z,86.09
2019-01-16T01:48:39.969Z,86.00
2019-01-16T01:53:47.664Z,85.86
2019-01-16T01:58:59.739Z,85.96
2019-01-16T02:04:18.550Z,85.97
2019-01-16T02:09:29.604Z,85.80
2019-01-16T02:14:41.643Z,85.91
2019-01-16T02:19:56.714Z,85.91
2019-01-16T02:25:08.669Z,85.95
2019-01-16T02:30:21.567Z,86.11
2019-01-16T02:35:33.622Z,86.28
2019-01-16T02:40:46.633Z,86.50
2019-01-16T02:45:58.610Z,86.71
2019-01-16T02:51:10.695Z,86.68
2019-01-16T02:56:32.688Z,86.61
2019-01-16T03:01:44.738Z,86.45
2019-01-16T03:06:58.774Z,86.52
2019-01-16T03:12:10.672Z,86.51
2019-01-16T03:17:22.720Z,86.50
2019-01-16T03:22:43.461Z,86.71
2019-01-16T03:28:05.483Z,86.84
2019-01-16T03:33:16.652Z,86.93
2019-01-16T03:38:28.710Z,86.95
2019-01-16T03:43:40.649Z,87.05
2019-01-16T03:48:52.642Z,87.17
2019-01-16T03:54:10.223Z,87.35
2019-01-16T03:59:25.046Z,87.50
2019-01-16T04:04:36.636Z,87.66
2019-01-16T04:09:51.223Z,87.89
2019-01-16T04:15:02.649Z,88.08
2019-01-16T04:20:14.628Z,88.44
2019-01-16T04:25:26.733Z,88.88
2019-01-16T04:30:38.634Z,89.16
2019-01-16T04:35:51.140Z,89.37
2019-01-16T04:41:07.478Z,89.82
2019-01-16T04:46:29.520Z,90.01
2019-01-16T04:51:41.605Z,89.72
2019-01-16T04:56:54.265Z,89.63
2019-01-16T05:02:05.646Z,89.60
2019-01-16T05:07:20.163Z,89.98
2019-01-16T05:12:42.277Z,90.35
2019-01-16T05:17:53.654Z,90.40
2019-01-16T05:23:05.746Z,90.35
2019-01-16T05:28:27.851Z,90.34
2019-01-16T05:33:40.273Z,90.42
2019-01-16T05:39:00.339Z,90.58
2019-01-16T05:44:14.390Z,90.45
2019-01-16T05:49:36.454Z,90.49
2019-01-16T05:54:58.488Z,90.56
2019-01-16T06:00:09.570Z,90.59
2019-01-16T06:05:21.304Z,90.47
2019-01-16T06:10:38.684Z,90.39
2019-01-16T06:15:49.319Z,90.24
2019-01-16T06:21:04.458Z,90.18
2019-01-16T06:26:16.623Z,89.93
2019-01-16T06:31:28.557Z,90.16
2019-01-16T06:36:45.472Z,90.28
2019-01-16T06:41:56.655Z,90.30
2019-01-16T06:47:10.129Z,90.46
2019-01-16T06:52:21.593Z,90.22
2019-01-16T06:57:33.545Z,89.76
2019-01-16T07:02:45.571Z,89.84
2019-01-16T07:07:59.772Z,89.60
2019-01-16T07:13:11.556Z,89.53
2019-01-16T07:18:25.161Z,89.48
2019-01-16T07:23:47.312Z,89.59
2019-01-16T07:28:58.548Z,89.65
2019-01-16T07:34:10.662Z,89.87
2019-01-16T07:39:22.653Z,89.83
2019-01-16T07:44:35.423Z,89.53
2019-01-16T07:49:46.661Z,89.49
2019-01-16T07:54:58.646Z,89.53
2019-01-16T08:00:10.703Z,89.40
2019-01-16T08:05:32.766Z,89.19
2019-01-16T08:10:50.722Z,89.13
2019-01-16T08:16:02.696Z,89.08
2019-01-16T08:21:14.552Z,88.89
2019-01-16T08:26:31.425Z,89.02
2019-01-16T08:31:43.620Z,89.08
2019-01-16T08:36:55.650Z,89.10
2019-01-16T08:42:07.705Z,89.48
2019-01-16T08:47:19.706Z,89.33
2019-01-16T08:52:31.626Z,89.21
2019-01-16T08:57:47.587Z,89.21
2019-01-16T09:03:09.894Z,89.35
2019-01-16T09:08:21.630Z,89.09
2019-01-16T09:13:33.610Z,89.08
2019-01-16T09:18:46.872Z,89.12
2019-01-16T09:23:58.650Z,88.86
2019-01-16T09:29:10.705Z,88.87
2019-01-16T09:34:22.671Z,88.99
2019-01-16T09:39:44.734Z,89.19
2019-01-16T09:44:56.653Z,89.49
2019-01-16T09:50:18.822Z,89.56
2019-01-16T09:55:30.587Z,89.94
2019-01-16T10:00:43.420Z,90.33
2019-01-16T10:06:01.639Z,90.10
2019-01-16T10:11:23.682Z,90.27
2019-01-16T10:16:35.578Z,90.28
2019-01-16T10:21:50.088Z,90.35
2019-01-16T10:27:05.717Z,90.40
2019-01-16T10:32:18.014Z,90.47
2019-01-16T10:37:33.008Z,90.46
2019-01-16T10:42:44.730Z,90.51
2019-01-16T10:47:54.488Z,90.20
2019-01-16T10:53:05.563Z,90.22
2019-01-16T10:58:23.847Z,90.00
2019-01-16T11:03:43.755Z,89.57
2019-01-16T11:09:05.708Z,89.60
2019-01-16T11:14:24.528Z,88.73
2019-01-16T11:19:45.958Z,88.58
2019-01-16T11:24:57.273Z,88.72
2019-01-16T11:30:08.583Z,89.22
2019-01-16T11:35:21.531Z,89.94
2019-01-16T11:40:37.082Z,89.76
2019-01-16T11:45:47.777Z,88.44
2019-01-16T11:51:03.379Z,88.39
2019-01-16T11:56:15.793Z,88.13
2019-01-16T12:01:35.577Z,88.32
2019-01-16T12:06:47.463Z,88.56
2019-01-16T12:12:00.672Z,87.82
2019-01-16T12:17:13.239Z,88.18
2019-01-16T12:22:24.647Z,88.05
2019-01-16T12:27:36.467Z,88.68
2019-01-16T12:32:46.484Z,88.13
2019-01-16T12:38:05.461Z,87.62
2019-01-16T12:43:17.583Z,86.92
2019-01-16T12:48:39.717Z,86.28
2019-01-16T12:53:51.618Z,85.54
2019-01-16T12:59:03.729Z,84.96
2019-01-16T13:04:15.658Z,84.94
2019-01-16T13:09:29.097Z,84.83
2019-01-16T13:14:40.278Z,84.67
2019-01-16T13:19:51.634Z,84.14
2019-01-16T13:25:03.654Z,83.57
2019-01-16T13:30:27.713Z,83.52
2019-01-16T13:35:39.653Z,83.33
2019-01-16T13:41:01.742Z,83.31
2019-01-16T13:46:13.548Z,82.59
2019-01-16T13:51:24.701Z,82.13
2019-01-16T13:56:36.147Z,81.68
2019-01-16T14:01:46.438Z,81.39
2019-01-16T14:06:57.617Z,80.50
2019-01-16T14:12:11.058Z,80.80
2019-01-16T14:17:29.982Z,81.07
2019-01-16T14:22:44.450Z,80.98
2019-01-16T14:27:59.637Z,80.41
2019-01-16T14:33:12.023Z,80.38
2019-01-16T14:38:23.633Z,79.60
2019-01-16T14:43:45.642Z,79.08
2019-01-16T14:48:55.493Z,78.80
2019-01-16T14:54:11.837Z,78.89
2019-01-16T14:59:29.579Z,78.71
2019-01-16T15:04:42.118Z,79.06
2019-01-16T15:09:53.380Z,78.48
2019-01-16T15:15:11.513Z,78.69
2019-01-16T15:20:31.325Z,79.40
2019-01-16T15:25:42.532Z,77.99
2019-01-16T15:30:54.575Z,72.19
2019-01-16T15:36:16.948Z,70.90
2019-01-16T15:41:36.921Z,71.38
2019-01-16T15:46:49.617Z,72.72
2019-01-16T15:52:12.841Z,74.53
2019-01-16T15:57:20.683Z,74.13
2019-01-16T16:02:46.634Z,73.67
2019-01-16T16:08:05.037Z,73.13
2019-01-16T16:13:24.413Z,75.07
2019-01-16T16:18:35.686Z,75.01
2019-01-16T16:23:47.707Z,74.23
2019-01-16T16:28:59.557Z,75.24
2019-01-16T16:34:11.668Z,75.51
2019-01-16T16:39:23.587Z,76.96
2019-01-16T16:44:34.947Z,76.16
2019-01-16T16:49:45.687Z,78.01
2019-01-16T16:55:07.682Z,78.86
2019-01-16T17:00:25.620Z,79.26
2019-01-16T17:05:37.797Z,79.61
2019-01-16T17:10:50.181Z,79.52
2019-01-16T17:16:06.202Z,79.50
2019-01-16T17:21:20.682Z,79.53
2019-01-16T17:26:32.938Z,79.36
2019-01-16T17:31:47.823Z,78.38
2019-01-16T17:36:59.683Z,77.36
2019-01-16T17:42:12.102Z,77.65
2019-01-16T17:47:23.683Z,78.56
2019-01-16T17:52:38.871Z,79.93
2019-01-16T17:57:48.746Z,79.57
2019-01-16T18:03:00.638Z,79.67
2019-01-16T18:08:12.998Z,79.90
2019-01-16T18:13:25.358Z,80.26
2019-01-16T18:18:39.746Z,80.02
2019-01-16T18:23:51.621Z,79.78
2019-01-16T18:29:02.163Z,80.64
2019-01-16T18:34:13.682Z,80.79
2019-01-16T18:39:25.588Z,81.19
2019-01-16T18:44:37.627Z,82.08
2019-01-16T18:49:49.673Z,82.48
2019-01-16T18:55:04.521Z,80.83
2019-01-16T19:00:28.710Z,81.39
2019-01-16T19:05:50.732Z,81.97
2019-01-16T19:11:04.993Z,81.85
2019-01-16T19:16:18.053Z,81.11
2019-01-16T19:21:31.083Z,80.33
2019-01-16T19:26:42.720Z,79.87
2019-01-16T19:31:54.612Z,80.08
2019-01-16T19:37:15.400Z,80.81
2019-01-16T19:42:30.418Z,80.32
2019-01-16T19:47:44.199Z,80.81
2019-01-16T19:53:04.832Z,80.68
2019-01-16T19:58:21.247Z,81.76
2019-01-16T20:03:37.367Z,83.02
2019-01-16T20:08:48.577Z,83.22
2019-01-16T20:14:00.631Z,81.38
2019-01-16T20:19:13.497Z,81.23
2019-01-16T20:24:28.102Z,82.81
2019-01-16T20:29:42.457Z,82.30
2019-01-16T20:34:54.705Z,82.65
2019-01-16T20:40:06.562Z,81.33
2019-01-16T20:45:21.034Z,82.15
2019-01-16T20:50:32.553Z,80.78
2019-01-16T20:55:50.142Z,80.73
2019-01-16T21:01:12.142Z,80.53
2019-01-16T21:06:29.308Z,80.98
2019-01-16T21:11:40.700Z,80.96
2019-01-16T21:16:52.567Z,80.02
2019-01-16T21:22:13.943Z,80.63
2019-01-16T21:27:25.258Z,80.35
2019-01-16T21:32:36.432Z,79.82
2019-01-16T21:37:52.888Z,79.48
2019-01-16T21:43:04.627Z,78.94
2019-01-16T21:48:16.618Z,79.59
2019-01-16T21:53:30.470Z,81.27
2019-01-16T21:58:49.177Z,81.70
2019-01-16T22:04:02.566Z,80.54
2019-01-16T22:09:15.973Z,80.08
2019-01-16T22:14:26.398Z,80.32
2019-01-16T22:19:48.374Z,79.71
2019-01-16T22:25:10.462Z,79.41
2019-01-16T22:30:26.197Z,80.45
2019-01-16T22:35:48.202Z,79.07
2019-01-16T22:40:59.554Z,80.07
2019-01-16T22:46:11.575Z,77.46
2019-01-16T22:51:23.606Z,79.10
2019-01-16T22:56:36.612Z,77.31
2019-01-16T23:01:58.773Z,77.50
2019-01-16T23:07:10.552Z,75.76
2019-01-16T23:12:26.943Z,75.73
2019-01-16T23:17:38.594Z,76.09
2019-01-16T23:22:52.313Z,76.15
2019-01-16T23:28:03.628Z,78.49
2019-01-16T23:33:17.362Z,78.97
2019-01-16T23:38:28.629Z,78.07
2019-01-16T23:43:40.612Z,76.39
2019-01-16T23:48:58.964Z,76.65
2019-01-16T23:54:12.540Z,74.53
2019-01-16T23:59:31.544Z,75.09
